sensor_id;sensor_type;location;lat;lon;timestamp;temperature;humidity
18240;DHT22;9244;50.828;4.718;2022-07-06T00:00:05;12.10;99.90
18240;DHT22;9244;50.828;4.718;2022-07-06T00:02:31;12.00;99.90
18240;DHT22;9244;50.828;4.718;2022-07-06T00:04:57;11.90;99.90
18240;DHT22;9244;50.828;4.718;2022-07-06T00:07:23;12.00;99.90
18240;DHT22;9244;50.828;4.718;2022-07-06T00:09:49;11.90;99.90
18240;DHT22;9244;50.828;4.718;2022-07-06T00:12:15;11.90;99.90
18240;DHT22;9244;50.828;4.718;2022-07-06T00:14:40;11.80;99.90
18240;DHT22;9244;50.828;4.718;2022-07-06T00:17:06;11.90;99.90
18240;DHT22;9244;50.828;4.718;2022-07-06T00:19:32;12.00;99.90
18240;DHT22;9244;50.828;4.718;2022-07-06T00:21:57;12.10;99.90
18240;DHT22;9244;50.828;4.718;2022-07-06T00:24:23;11.90;99.90
18240;DHT22;9244;50.828;4.718;2022-07-06T00:26:49;12.00;99.90
18240;DHT22;9244;50.828;4.718;2022-07-06T00:29:14;12.10;99.90
18240;DHT22;9244;50.828;4.718;2022-07-06T00:31:40;11.90;99.90
18240;DHT22;9244;50.828;4.718;2022-07-06T00:34:05;12.10;99.90
18240;DHT22;9244;50.828;4.718;2022-07-06T00:36:31;12.00;99.90
18240;DHT22;9244;50.828;4.718;2022-07-06T00:38:57;11.90;99.90
18240;DHT22;9244;50.828;4.718;2022-07-06T00:41:22;11.70;99.90
18240;DHT22;9244;50.828;4.718;2022-07-06T00:46:16;11.50;99.90
18240;DHT22;9244;50.828;4.718;2022-07-06T00:48:42;11.60;99.90
18240;DHT22;9244;50.828;4.718;2022-07-06T00:51:08;11.60;99.90
18240;DHT22;9244;50.828;4.718;2022-07-06T00:53:34;11.40;99.90
18240;DHT22;9244;50.828;4.718;2022-07-06T00:56:00;11.30;99.90
18240;DHT22;9244;50.828;4.718;2022-07-06T00:58:26;11.30;99.90
18240;DHT22;9244;50.828;4.718;2022-07-06T01:00:52;11.30;99.90
18240;DHT22;9244;50.828;4.718;2022-07-06T01:03:18;11.40;99.90
18240;DHT22;9244;50.828;4.718;2022-07-06T01:05:44;11.40;99.90
18240;DHT22;9244;50.828;4.718;2022-07-06T01:08:09;11.30;99.90
18240;DHT22;9244;50.828;4.718;2022-07-06T01:10:35;11.30;99.90
18240;DHT22;9244;50.828;4.718;2022-07-06T01:13:01;11.30;99.90
18240;DHT22;9244;50.828;4.718;2022-07-06T01:15:26;11.20;99.90
18240;DHT22;9244;50.828;4.718;2022-07-06T01:17:53;11.20;99.90
18240;DHT22;9244;50.828;4.718;2022-07-06T01:20:24;11.20;99.90
18240;DHT22;9244;50.828;4.718;2022-07-06T01:22:52;11.20;99.90
18240;DHT22;9244;50.828;4.718;2022-07-06T01:25:19;11.30;99.90
18240;DHT22;9244;50.828;4.718;2022-07-06T01:27:45;11.30;99.90
18240;DHT22;9244;50.828;4.718;2022-07-06T01:30:16;11.40;99.90
18240;DHT22;9244;50.828;4.718;2022-07-06T01:32:42;11.50;99.90
18240;DHT22;9244;50.828;4.718;2022-07-06T01:35:13;11.40;99.90
18240;DHT22;9244;50.828;4.718;2022-07-06T01:37:39;11.40;99.90
18240;DHT22;9244;50.828;4.718;2022-07-06T01:40:07;11.30;99.90
18240;DHT22;9244;50.828;4.718;2022-07-06T01:42:34;11.30;99.90
18240;DHT22;9244;50.828;4.718;2022-07-06T01:45:00;11.20;99.90
18240;DHT22;9244;50.828;4.718;2022-07-06T01:47:26;11.00;99.90
18240;DHT22;9244;50.828;4.718;2022-07-06T01:49:52;10.90;99.90
18240;DHT22;9244;50.828;4.718;2022-07-06T01:52:18;11.10;99.90
18240;DHT22;9244;50.828;4.718;2022-07-06T01:54:44;11.20;99.90
18240;DHT22;9244;50.828;4.718;2022-07-06T01:57:10;11.30;99.90
18240;DHT22;9244;50.828;4.718;2022-07-06T01:59:36;11.20;99.90
18240;DHT22;9244;50.828;4.718;2022-07-06T02:02:02;11.00;99.90
18240;DHT22;9244;50.828;4.718;2022-07-06T02:04:27;11.00;99.90
18240;DHT22;9244;50.828;4.718;2022-07-06T02:06:53;11.00;99.90
18240;DHT22;9244;50.828;4.718;2022-07-06T02:09:19;10.80;99.90
18240;DHT22;9244;50.828;4.718;2022-07-06T02:11:44;10.80;99.90
18240;DHT22;9244;50.828;4.718;2022-07-06T02:14:10;11.00;99.90
18240;DHT22;9244;50.828;4.718;2022-07-06T02:16:37;11.00;99.90
18240;DHT22;9244;50.828;4.718;2022-07-06T02:19:02;11.00;99.90
18240;DHT22;9244;50.828;4.718;2022-07-06T02:21:28;10.90;99.90
18240;DHT22;9244;50.828;4.718;2022-07-06T02:23:54;10.90;99.90
18240;DHT22;9244;50.828;4.718;2022-07-06T02:26:19;10.80;99.90
18240;DHT22;9244;50.828;4.718;2022-07-06T02:28:45;10.70;99.90
18240;DHT22;9244;50.828;4.718;2022-07-06T02:31:13;10.70;99.90
18240;DHT22;9244;50.828;4.718;2022-07-06T02:33:39;10.60;99.90
18240;DHT22;9244;50.828;4.718;2022-07-06T02:36:05;10.50;99.90
18240;DHT22;9244;50.828;4.718;2022-07-06T02:38:31;10.60;99.90
18240;DHT22;9244;50.828;4.718;2022-07-06T02:40:56;10.60;99.90
18240;DHT22;9244;50.828;4.718;2022-07-06T02:43:22;10.80;99.90
18240;DHT22;9244;50.828;4.718;2022-07-06T02:45:47;10.70;99.90
18240;DHT22;9244;50.828;4.718;2022-07-06T02:48:13;10.60;99.90
18240;DHT22;9244;50.828;4.718;2022-07-06T02:50:39;10.50;99.90
18240;DHT22;9244;50.828;4.718;2022-07-06T02:53:04;10.60;99.90
18240;DHT22;9244;50.828;4.718;2022-07-06T02:55:30;10.40;99.90
18240;DHT22;9244;50.828;4.718;2022-07-06T02:57:56;10.50;99.90
18240;DHT22;9244;50.828;4.718;2022-07-06T03:00:22;10.70;99.90
18240;DHT22;9244;50.828;4.718;2022-07-06T03:02:47;10.80;99.90
18240;DHT22;9244;50.828;4.718;2022-07-06T03:05:13;10.80;99.90
18240;DHT22;9244;50.828;4.718;2022-07-06T03:07:39;11.00;99.90
18240;DHT22;9244;50.828;4.718;2022-07-06T03:10:04;11.10;99.90
18240;DHT22;9244;50.828;4.718;2022-07-06T03:12:30;11.00;99.90
18240;DHT22;9244;50.828;4.718;2022-07-06T03:14:56;10.90;99.90
18240;DHT22;9244;50.828;4.718;2022-07-06T03:17:21;10.80;99.90
18240;DHT22;9244;50.828;4.718;2022-07-06T03:19:47;10.70;99.90
18240;DHT22;9244;50.828;4.718;2022-07-06T03:22:13;10.60;99.90
18240;DHT22;9244;50.828;4.718;2022-07-06T03:24:38;10.50;99.90
18240;DHT22;9244;50.828;4.718;2022-07-06T03:27:04;10.60;99.90
18240;DHT22;9244;50.828;4.718;2022-07-06T03:29:30;10.50;99.90
18240;DHT22;9244;50.828;4.718;2022-07-06T03:31:55;10.40;99.90
18240;DHT22;9244;50.828;4.718;2022-07-06T03:34:21;10.30;99.90
18240;DHT22;9244;50.828;4.718;2022-07-06T03:36:46;10.30;99.90
18240;DHT22;9244;50.828;4.718;2022-07-06T03:39:12;10.40;99.90
18240;DHT22;9244;50.828;4.718;2022-07-06T03:41:38;10.40;99.90
18240;DHT22;9244;50.828;4.718;2022-07-06T03:44:03;10.60;99.90
18240;DHT22;9244;50.828;4.718;2022-07-06T03:46:29;10.50;99.90
18240;DHT22;9244;50.828;4.718;2022-07-06T03:48:55;10.50;99.90
18240;DHT22;9244;50.828;4.718;2022-07-06T03:51:21;10.40;99.90
18240;DHT22;9244;50.828;4.718;2022-07-06T03:53:46;10.40;99.90
18240;DHT22;9244;50.828;4.718;2022-07-06T03:56:12;10.40;99.90
18240;DHT22;9244;50.828;4.718;2022-07-06T03:58:59;10.30;99.90
18240;DHT22;9244;50.828;4.718;2022-07-06T04:01:25;10.40;99.90
18240;DHT22;9244;50.828;4.718;2022-07-06T04:03:51;10.40;99.90
18240;DHT22;9244;50.828;4.718;2022-07-06T04:06:17;10.40;99.90
18240;DHT22;9244;50.828;4.718;2022-07-06T04:08:43;10.40;99.90
18240;DHT22;9244;50.828;4.718;2022-07-06T04:11:09;10.60;99.90
18240;DHT22;9244;50.828;4.718;2022-07-06T04:13:34;10.80;99.90
18240;DHT22;9244;50.828;4.718;2022-07-06T04:16:00;10.80;99.90
18240;DHT22;9244;50.828;4.718;2022-07-06T04:18:26;10.80;99.90
18240;DHT22;9244;50.828;4.718;2022-07-06T04:20:52;10.90;99.90
18240;DHT22;9244;50.828;4.718;2022-07-06T04:23:18;10.90;99.90
18240;DHT22;9244;50.828;4.718;2022-07-06T04:25:43;11.00;99.90
18240;DHT22;9244;50.828;4.718;2022-07-06T04:28:09;11.10;99.90
18240;DHT22;9244;50.828;4.718;2022-07-06T04:30:35;11.20;99.90
18240;DHT22;9244;50.828;4.718;2022-07-06T04:33:01;11.30;99.90
18240;DHT22;9244;50.828;4.718;2022-07-06T04:35:26;11.30;99.90
18240;DHT22;9244;50.828;4.718;2022-07-06T04:37:52;11.20;99.90
18240;DHT22;9244;50.828;4.718;2022-07-06T04:40:18;11.40;99.90
18240;DHT22;9244;50.828;4.718;2022-07-06T04:42:43;11.40;99.90
18240;DHT22;9244;50.828;4.718;2022-07-06T04:45:09;11.40;99.90
18240;DHT22;9244;50.828;4.718;2022-07-06T04:47:35;11.30;99.90
18240;DHT22;9244;50.828;4.718;2022-07-06T04:50:02;11.30;99.90
18240;DHT22;9244;50.828;4.718;2022-07-06T04:52:27;11.20;99.90
18240;DHT22;9244;50.828;4.718;2022-07-06T04:54:56;11.40;99.90
18240;DHT22;9244;50.828;4.718;2022-07-06T04:57:21;11.70;99.90
18240;DHT22;9244;50.828;4.718;2022-07-06T04:59:47;11.90;99.90
18240;DHT22;9244;50.828;4.718;2022-07-06T05:02:13;12.00;99.90
18240;DHT22;9244;50.828;4.718;2022-07-06T05:04:38;12.00;99.90
18240;DHT22;9244;50.828;4.718;2022-07-06T05:07:04;12.10;99.90
18240;DHT22;9244;50.828;4.718;2022-07-06T05:09:30;12.00;99.90
18240;DHT22;9244;50.828;4.718;2022-07-06T05:11:55;12.20;99.90
18240;DHT22;9244;50.828;4.718;2022-07-06T05:14:21;12.10;99.90
18240;DHT22;9244;50.828;4.718;2022-07-06T05:16:47;12.20;99.90
18240;DHT22;9244;50.828;4.718;2022-07-06T05:19:12;12.50;99.90
18240;DHT22;9244;50.828;4.718;2022-07-06T05:21:38;12.30;99.90
18240;DHT22;9244;50.828;4.718;2022-07-06T05:24:04;12.40;99.90
18240;DHT22;9244;50.828;4.718;2022-07-06T05:26:29;12.40;99.90
18240;DHT22;9244;50.828;4.718;2022-07-06T05:28:55;12.50;99.90
18240;DHT22;9244;50.828;4.718;2022-07-06T05:31:21;12.50;99.90
18240;DHT22;9244;50.828;4.718;2022-07-06T05:33:46;12.80;99.90
18240;DHT22;9244;50.828;4.718;2022-07-06T05:36:12;13.00;99.90
18240;DHT22;9244;50.828;4.718;2022-07-06T05:38:38;13.10;99.90
18240;DHT22;9244;50.828;4.718;2022-07-06T05:41:03;13.20;99.90
18240;DHT22;9244;50.828;4.718;2022-07-06T05:43:29;13.30;99.90
18240;DHT22;9244;50.828;4.718;2022-07-06T05:45:55;13.50;99.90
18240;DHT22;9244;50.828;4.718;2022-07-06T05:48:20;13.60;99.90
18240;DHT22;9244;50.828;4.718;2022-07-06T05:51:05;13.80;99.90
18240;DHT22;9244;50.828;4.718;2022-07-06T05:53:30;14.40;99.90
18240;DHT22;9244;50.828;4.718;2022-07-06T05:55:56;15.30;99.90
18240;DHT22;9244;50.828;4.718;2022-07-06T05:58:22;16.00;99.90
18240;DHT22;9244;50.828;4.718;2022-07-06T06:00:49;16.40;99.90
18240;DHT22;9244;50.828;4.718;2022-07-06T06:03:15;16.80;99.90
18240;DHT22;9244;50.828;4.718;2022-07-06T06:05:40;17.10;99.90
18240;DHT22;9244;50.828;4.718;2022-07-06T06:08:06;17.70;99.90
18240;DHT22;9244;50.828;4.718;2022-07-06T06:10:32;18.00;99.90
18240;DHT22;9244;50.828;4.718;2022-07-06T06:12:58;18.00;99.90
18240;DHT22;9244;50.828;4.718;2022-07-06T06:15:23;18.50;99.90
18240;DHT22;9244;50.828;4.718;2022-07-06T06:17:49;18.80;99.90
18240;DHT22;9244;50.828;4.718;2022-07-06T06:20:15;19.10;99.90
18240;DHT22;9244;50.828;4.718;2022-07-06T06:22:54;19.20;99.90
18240;DHT22;9244;50.828;4.718;2022-07-06T06:25:29;18.90;99.90
18240;DHT22;9244;50.828;4.718;2022-07-06T06:27:55;18.90;99.90
18240;DHT22;9244;50.828;4.718;2022-07-06T06:30:21;18.50;99.90
18240;DHT22;9244;50.828;4.718;2022-07-06T06:32:46;18.50;99.90
18240;DHT22;9244;50.828;4.718;2022-07-06T06:35:12;18.30;99.90
18240;DHT22;9244;50.828;4.718;2022-07-06T06:37:38;18.40;99.90
18240;DHT22;9244;50.828;4.718;2022-07-06T06:40:05;18.30;99.90
18240;DHT22;9244;50.828;4.718;2022-07-06T06:42:31;18.10;99.90
18240;DHT22;9244;50.828;4.718;2022-07-06T06:44:57;18.40;99.90
18240;DHT22;9244;50.828;4.718;2022-07-06T06:47:23;18.60;99.90
18240;DHT22;9244;50.828;4.718;2022-07-06T06:49:48;19.00;99.90
18240;DHT22;9244;50.828;4.718;2022-07-06T06:52:14;19.50;99.90
18240;DHT22;9244;50.828;4.718;2022-07-06T06:54:40;18.30;99.90
18240;DHT22;9244;50.828;4.718;2022-07-06T06:57:06;19.20;99.90
18240;DHT22;9244;50.828;4.718;2022-07-06T06:59:31;19.50;99.90
18240;DHT22;9244;50.828;4.718;2022-07-06T07:01:57;20.20;99.90
18240;DHT22;9244;50.828;4.718;2022-07-06T07:04:23;20.80;99.90
18240;DHT22;9244;50.828;4.718;2022-07-06T07:06:48;21.10;99.90
18240;DHT22;9244;50.828;4.718;2022-07-06T07:09:14;21.10;99.90
18240;DHT22;9244;50.828;4.718;2022-07-06T07:11:40;21.20;99.90
18240;DHT22;9244;50.828;4.718;2022-07-06T07:14:05;20.20;99.90
18240;DHT22;9244;50.828;4.718;2022-07-06T07:16:31;20.20;99.90
18240;DHT22;9244;50.828;4.718;2022-07-06T07:18:56;21.10;99.90
18240;DHT22;9244;50.828;4.718;2022-07-06T07:21:22;20.70;99.90
18240;DHT22;9244;50.828;4.718;2022-07-06T07:23:48;20.70;99.90
18240;DHT22;9244;50.828;4.718;2022-07-06T07:26:15;20.10;99.90
18240;DHT22;9244;50.828;4.718;2022-07-06T07:28:41;20.50;99.90
18240;DHT22;9244;50.828;4.718;2022-07-06T07:31:07;20.70;99.90
18240;DHT22;9244;50.828;4.718;2022-07-06T07:33:34;21.60;99.90
18240;DHT22;9244;50.828;4.718;2022-07-06T07:35:59;21.30;99.90
18240;DHT22;9244;50.828;4.718;2022-07-06T07:38:25;21.70;99.90
18240;DHT22;9244;50.828;4.718;2022-07-06T07:40:53;22.20;99.90
18240;DHT22;9244;50.828;4.718;2022-07-06T07:43:18;22.50;99.90
18240;DHT22;9244;50.828;4.718;2022-07-06T07:45:44;22.70;99.90
18240;DHT22;9244;50.828;4.718;2022-07-06T07:48:10;22.40;99.90
18240;DHT22;9244;50.828;4.718;2022-07-06T07:50:36;22.30;99.90
18240;DHT22;9244;50.828;4.718;2022-07-06T07:53:02;22.70;99.90
18240;DHT22;9244;50.828;4.718;2022-07-06T07:55:28;22.60;99.90
18240;DHT22;9244;50.828;4.718;2022-07-06T07:57:53;22.50;99.90
18240;DHT22;9244;50.828;4.718;2022-07-06T08:00:19;21.80;99.90
18240;DHT22;9244;50.828;4.718;2022-07-06T08:02:47;22.20;99.90
18240;DHT22;9244;50.828;4.718;2022-07-06T08:05:12;22.20;99.90
18240;DHT22;9244;50.828;4.718;2022-07-06T08:07:44;22.90;99.90
18240;DHT22;9244;50.828;4.718;2022-07-06T08:10:10;22.50;99.90
18240;DHT22;9244;50.828;4.718;2022-07-06T08:12:36;22.30;99.90
18240;DHT22;9244;50.828;4.718;2022-07-06T08:15:03;21.10;99.90
18240;DHT22;9244;50.828;4.718;2022-07-06T08:17:28;21.30;99.90
18240;DHT22;9244;50.828;4.718;2022-07-06T08:19:55;21.80;99.90
18240;DHT22;9244;50.828;4.718;2022-07-06T08:22:20;21.60;99.90
18240;DHT22;9244;50.828;4.718;2022-07-06T08:24:46;22.50;99.90
18240;DHT22;9244;50.828;4.718;2022-07-06T08:27:12;22.10;99.90
18240;DHT22;9244;50.828;4.718;2022-07-06T08:29:37;22.60;99.90
18240;DHT22;9244;50.828;4.718;2022-07-06T08:32:03;22.50;99.90
18240;DHT22;9244;50.828;4.718;2022-07-06T08:34:29;22.60;99.90
18240;DHT22;9244;50.828;4.718;2022-07-06T08:36:55;21.80;99.90
18240;DHT22;9244;50.828;4.718;2022-07-06T08:39:20;21.80;99.90
18240;DHT22;9244;50.828;4.718;2022-07-06T08:41:47;20.80;99.90
18240;DHT22;9244;50.828;4.718;2022-07-06T08:44:17;20.30;99.90
18240;DHT22;9244;50.828;4.718;2022-07-06T08:46:43;20.60;99.90
18240;DHT22;9244;50.828;4.718;2022-07-06T08:49:13;21.20;99.90
18240;DHT22;9244;50.828;4.718;2022-07-06T08:51:40;21.00;99.90
18240;DHT22;9244;50.828;4.718;2022-07-06T08:54:07;21.30;99.90
18240;DHT22;9244;50.828;4.718;2022-07-06T08:56:33;22.00;99.90
18240;DHT22;9244;50.828;4.718;2022-07-06T08:58:59;22.40;99.90
18240;DHT22;9244;50.828;4.718;2022-07-06T09:01:25;21.90;99.90
18240;DHT22;9244;50.828;4.718;2022-07-06T09:03:52;21.90;99.90
18240;DHT22;9244;50.828;4.718;2022-07-06T09:06:26;22.30;99.90
18240;DHT22;9244;50.828;4.718;2022-07-06T09:08:54;22.40;99.90
18240;DHT22;9244;50.828;4.718;2022-07-06T09:11:23;21.90;99.90
18240;DHT22;9244;50.828;4.718;2022-07-06T09:13:52;21.60;99.90
18240;DHT22;9244;50.828;4.718;2022-07-06T09:16:25;21.20;99.90
18240;DHT22;9244;50.828;4.718;2022-07-06T09:18:52;21.90;99.90
18240;DHT22;9244;50.828;4.718;2022-07-06T09:21:31;22.00;99.90
18240;DHT22;9244;50.828;4.718;2022-07-06T09:24:00;22.20;99.90
18240;DHT22;9244;50.828;4.718;2022-07-06T09:26:26;22.70;99.90
18240;DHT22;9244;50.828;4.718;2022-07-06T09:28:55;22.10;99.90
18240;DHT22;9244;50.828;4.718;2022-07-06T09:31:21;22.10;99.90
18240;DHT22;9244;50.828;4.718;2022-07-06T09:33:54;22.10;99.90
18240;DHT22;9244;50.828;4.718;2022-07-06T09:36:46;22.40;99.90
18240;DHT22;9244;50.828;4.718;2022-07-06T09:39:16;22.10;99.90
18240;DHT22;9244;50.828;4.718;2022-07-06T09:41:41;21.60;99.90
18240;DHT22;9244;50.828;4.718;2022-07-06T09:44:08;21.50;99.90
18240;DHT22;9244;50.828;4.718;2022-07-06T09:46:42;21.60;99.90
18240;DHT22;9244;50.828;4.718;2022-07-06T09:49:08;21.80;99.90
18240;DHT22;9244;50.828;4.718;2022-07-06T09:51:38;22.30;99.90
18240;DHT22;9244;50.828;4.718;2022-07-06T09:54:07;22.10;99.90
18240;DHT22;9244;50.828;4.718;2022-07-06T09:56:46;22.30;99.90
18240;DHT22;9244;50.828;4.718;2022-07-06T09:59:26;22.10;99.90
18240;DHT22;9244;50.828;4.718;2022-07-06T10:01:57;21.90;99.90
18240;DHT22;9244;50.828;4.718;2022-07-06T10:04:24;21.90;99.90
18240;DHT22;9244;50.828;4.718;2022-07-06T10:06:50;22.20;99.90
18240;DHT22;9244;50.828;4.718;2022-07-06T10:09:18;21.90;99.90
18240;DHT22;9244;50.828;4.718;2022-07-06T10:11:48;21.80;99.90
18240;DHT22;9244;50.828;4.718;2022-07-06T10:14:17;21.40;99.90
18240;DHT22;9244;50.828;4.718;2022-07-06T10:16:44;21.40;99.90
18240;DHT22;9244;50.828;4.718;2022-07-06T10:19:10;21.30;99.90
18240;DHT22;9244;50.828;4.718;2022-07-06T10:21:39;21.30;99.90
18240;DHT22;9244;50.828;4.718;2022-07-06T10:24:06;21.30;99.90
18240;DHT22;9244;50.828;4.718;2022-07-06T10:26:33;21.30;99.90
18240;DHT22;9244;50.828;4.718;2022-07-06T10:29:00;21.50;99.90
18240;DHT22;9244;50.828;4.718;2022-07-06T10:31:27;21.50;99.90
18240;DHT22;9244;50.828;4.718;2022-07-06T10:33:55;21.60;99.90
18240;DHT22;9244;50.828;4.718;2022-07-06T10:36:21;22.00;99.90
18240;DHT22;9244;50.828;4.718;2022-07-06T10:38:51;21.80;99.90
18240;DHT22;9244;50.828;4.718;2022-07-06T10:41:17;22.10;99.90
18240;DHT22;9244;50.828;4.718;2022-07-06T10:43:46;22.20;99.90
18240;DHT22;9244;50.828;4.718;2022-07-06T10:46:14;22.30;99.90
18240;DHT22;9244;50.828;4.718;2022-07-06T10:48:42;22.60;99.90
18240;DHT22;9244;50.828;4.718;2022-07-06T10:51:09;23.00;99.90
18240;DHT22;9244;50.828;4.718;2022-07-06T10:53:37;23.10;99.90
18240;DHT22;9244;50.828;4.718;2022-07-06T10:56:08;22.90;99.90
18240;DHT22;9244;50.828;4.718;2022-07-06T10:58:38;22.70;99.90
18240;DHT22;9244;50.828;4.718;2022-07-06T11:01:09;22.20;99.90
18240;DHT22;9244;50.828;4.718;2022-07-06T11:03:47;21.70;99.90
18240;DHT22;9244;50.828;4.718;2022-07-06T11:06:18;21.70;99.90
18240;DHT22;9244;50.828;4.718;2022-07-06T11:08:58;22.00;99.90
18240;DHT22;9244;50.828;4.718;2022-07-06T11:16:23;21.70;99.90
18240;DHT22;9244;50.828;4.718;2022-07-06T11:19:03;21.70;99.90
18240;DHT22;9244;50.828;4.718;2022-07-06T11:21:52;22.10;99.90
18240;DHT22;9244;50.828;4.718;2022-07-06T11:24:20;22.20;99.90
18240;DHT22;9244;50.828;4.718;2022-07-06T11:26:47;22.30;99.90
18240;DHT22;9244;50.828;4.718;2022-07-06T11:29:15;22.10;99.90
18240;DHT22;9244;50.828;4.718;2022-07-06T11:31:42;22.10;99.90
18240;DHT22;9244;50.828;4.718;2022-07-06T11:34:10;22.20;99.90
18240;DHT22;9244;50.828;4.718;2022-07-06T11:36:37;22.80;99.90
18240;DHT22;9244;50.828;4.718;2022-07-06T11:39:04;23.10;99.90
18240;DHT22;9244;50.828;4.718;2022-07-06T11:41:31;23.30;99.90
18240;DHT22;9244;50.828;4.718;2022-07-06T11:43:56;23.10;99.90
18240;DHT22;9244;50.828;4.718;2022-07-06T11:46:27;23.30;99.90
18240;DHT22;9244;50.828;4.718;2022-07-06T11:48:58;23.50;99.90
18240;DHT22;9244;50.828;4.718;2022-07-06T11:51:26;23.70;99.90
18240;DHT22;9244;50.828;4.718;2022-07-06T11:53:56;23.80;99.90
18240;DHT22;9244;50.828;4.718;2022-07-06T11:56:23;23.80;99.90
18240;DHT22;9244;50.828;4.718;2022-07-06T11:58:58;22.70;99.90
18240;DHT22;9244;50.828;4.718;2022-07-06T12:01:25;22.60;99.90
18240;DHT22;9244;50.828;4.718;2022-07-06T12:03:53;22.70;99.90
18240;DHT22;9244;50.828;4.718;2022-07-06T12:06:23;23.20;99.90
18240;DHT22;9244;50.828;4.718;2022-07-06T12:08:51;23.00;99.90
18240;DHT22;9244;50.828;4.718;2022-07-06T12:11:23;22.50;99.90
18240;DHT22;9244;50.828;4.718;2022-07-06T12:13:54;22.30;99.90
18240;DHT22;9244;50.828;4.718;2022-07-06T12:16:20;22.20;99.90
18240;DHT22;9244;50.828;4.718;2022-07-06T12:18:48;22.60;99.90
18240;DHT22;9244;50.828;4.718;2022-07-06T12:21:18;22.60;99.90
18240;DHT22;9244;50.828;4.718;2022-07-06T12:23:47;22.60;99.90
18240;DHT22;9244;50.828;4.718;2022-07-06T12:26:15;23.00;99.90
18240;DHT22;9244;50.828;4.718;2022-07-06T12:28:42;22.70;99.90
18240;DHT22;9244;50.828;4.718;2022-07-06T12:31:08;23.30;99.90
18240;DHT22;9244;50.828;4.718;2022-07-06T12:33:34;23.20;99.90
18240;DHT22;9244;50.828;4.718;2022-07-06T12:36:13;23.50;99.90
18240;DHT22;9244;50.828;4.718;2022-07-06T12:38:47;23.50;99.90
18240;DHT22;9244;50.828;4.718;2022-07-06T12:41:31;23.10;99.90
18240;DHT22;9244;50.828;4.718;2022-07-06T12:44:02;22.40;99.90
18240;DHT22;9244;50.828;4.718;2022-07-06T12:46:39;22.60;99.90
18240;DHT22;9244;50.828;4.718;2022-07-06T12:49:16;22.60;99.90
18240;DHT22;9244;50.828;4.718;2022-07-06T12:52:00;23.20;99.90
18240;DHT22;9244;50.828;4.718;2022-07-06T12:54:34;23.50;99.90
18240;DHT22;9244;50.828;4.718;2022-07-06T12:59:28;24.30;99.90
18240;DHT22;9244;50.828;4.718;2022-07-06T13:01:54;24.00;99.90
18240;DHT22;9244;50.828;4.718;2022-07-06T13:04:27;23.60;99.90
18240;DHT22;9244;50.828;4.718;2022-07-06T13:06:54;23.30;99.90
18240;DHT22;9244;50.828;4.718;2022-07-06T13:09:20;23.30;99.90
18240;DHT22;9244;50.828;4.718;2022-07-06T13:11:47;22.90;99.90
18240;DHT22;9244;50.828;4.718;2022-07-06T13:14:17;22.80;99.90
18240;DHT22;9244;50.828;4.718;2022-07-06T13:16:46;22.60;99.90
18240;DHT22;9244;50.828;4.718;2022-07-06T13:19:12;22.50;99.90
18240;DHT22;9244;50.828;4.718;2022-07-06T13:21:38;23.10;99.90
18240;DHT22;9244;50.828;4.718;2022-07-06T13:24:04;23.80;99.90
18240;DHT22;9244;50.828;4.718;2022-07-06T13:26:30;24.10;99.90
18240;DHT22;9244;50.828;4.718;2022-07-06T13:28:59;23.90;99.90
18240;DHT22;9244;50.828;4.718;2022-07-06T13:31:26;23.50;99.90
18240;DHT22;9244;50.828;4.718;2022-07-06T13:33:52;23.00;99.90
18240;DHT22;9244;50.828;4.718;2022-07-06T13:36:18;22.80;99.90
18240;DHT22;9244;50.828;4.718;2022-07-06T13:38:43;22.60;99.90
18240;DHT22;9244;50.828;4.718;2022-07-06T13:41:09;22.40;99.90
18240;DHT22;9244;50.828;4.718;2022-07-06T13:43:35;22.70;99.90
18240;DHT22;9244;50.828;4.718;2022-07-06T13:46:05;22.80;99.90
18240;DHT22;9244;50.828;4.718;2022-07-06T13:48:31;23.00;99.90
18240;DHT22;9244;50.828;4.718;2022-07-06T13:50:57;23.20;99.90
18240;DHT22;9244;50.828;4.718;2022-07-06T13:53:23;23.40;99.90
18240;DHT22;9244;50.828;4.718;2022-07-06T13:55:49;23.70;99.90
18240;DHT22;9244;50.828;4.718;2022-07-06T13:58:15;23.50;99.90
18240;DHT22;9244;50.828;4.718;2022-07-06T14:00:41;23.00;99.90
18240;DHT22;9244;50.828;4.718;2022-07-06T14:03:07;23.30;99.90
18240;DHT22;9244;50.828;4.718;2022-07-06T14:05:34;23.40;99.90
18240;DHT22;9244;50.828;4.718;2022-07-06T14:07:59;23.40;99.90
18240;DHT22;9244;50.828;4.718;2022-07-06T14:10:25;22.90;99.90
18240;DHT22;9244;50.828;4.718;2022-07-06T14:12:51;23.10;99.90
18240;DHT22;9244;50.828;4.718;2022-07-06T14:15:17;23.20;99.90
18240;DHT22;9244;50.828;4.718;2022-07-06T14:17:43;23.60;99.90
18240;DHT22;9244;50.828;4.718;2022-07-06T14:20:09;23.80;99.90
18240;DHT22;9244;50.828;4.718;2022-07-06T14:22:34;23.80;99.90
18240;DHT22;9244;50.828;4.718;2022-07-06T14:25:00;23.50;99.90
18240;DHT22;9244;50.828;4.718;2022-07-06T14:27:26;23.80;99.90
18240;DHT22;9244;50.828;4.718;2022-07-06T14:29:51;24.10;99.90
18240;DHT22;9244;50.828;4.718;2022-07-06T14:32:17;24.50;99.90
18240;DHT22;9244;50.828;4.718;2022-07-06T14:34:43;24.40;99.90
18240;DHT22;9244;50.828;4.718;2022-07-06T14:37:08;24.40;99.90
18240;DHT22;9244;50.828;4.718;2022-07-06T14:39:34;24.10;99.90
18240;DHT22;9244;50.828;4.718;2022-07-06T14:41:59;24.40;99.90
18240;DHT22;9244;50.828;4.718;2022-07-06T14:44:25;24.50;99.90
18240;DHT22;9244;50.828;4.718;2022-07-06T14:46:52;24.00;99.90
18240;DHT22;9244;50.828;4.718;2022-07-06T14:49:18;23.70;99.90
18240;DHT22;9244;50.828;4.718;2022-07-06T14:51:43;23.40;99.90
18240;DHT22;9244;50.828;4.718;2022-07-06T14:54:09;23.50;99.90
18240;DHT22;9244;50.828;4.718;2022-07-06T14:56:35;23.20;99.90
18240;DHT22;9244;50.828;4.718;2022-07-06T14:59:01;23.20;99.90
18240;DHT22;9244;50.828;4.718;2022-07-06T15:01:27;23.20;99.90
18240;DHT22;9244;50.828;4.718;2022-07-06T15:03:52;23.10;99.90
18240;DHT22;9244;50.828;4.718;2022-07-06T15:06:18;22.90;99.90
18240;DHT22;9244;50.828;4.718;2022-07-06T15:08:44;22.90;99.90
18240;DHT22;9244;50.828;4.718;2022-07-06T15:11:09;23.40;99.90
18240;DHT22;9244;50.828;4.718;2022-07-06T15:13:35;23.80;99.90
18240;DHT22;9244;50.828;4.718;2022-07-06T15:16:01;24.00;99.90
18240;DHT22;9244;50.828;4.718;2022-07-06T15:18:26;24.00;99.90
18240;DHT22;9244;50.828;4.718;2022-07-06T15:20:52;24.20;99.90
18240;DHT22;9244;50.828;4.718;2022-07-06T15:23:19;23.90;99.90
18240;DHT22;9244;50.828;4.718;2022-07-06T15:25:44;23.90;99.90
18240;DHT22;9244;50.828;4.718;2022-07-06T15:28:10;24.00;99.90
18240;DHT22;9244;50.828;4.718;2022-07-06T15:30:38;23.70;99.90
18240;DHT22;9244;50.828;4.718;2022-07-06T15:33:03;23.10;99.90
18240;DHT22;9244;50.828;4.718;2022-07-06T15:35:29;22.80;99.90
18240;DHT22;9244;50.828;4.718;2022-07-06T15:37:54;22.80;99.90
18240;DHT22;9244;50.828;4.718;2022-07-06T15:40:39;22.80;99.90
18240;DHT22;9244;50.828;4.718;2022-07-06T15:43:21;23.10;99.90
18240;DHT22;9244;50.828;4.718;2022-07-06T15:45:46;23.00;99.90
18240;DHT22;9244;50.828;4.718;2022-07-06T15:48:12;22.70;99.90
18240;DHT22;9244;50.828;4.718;2022-07-06T15:50:38;22.60;99.90
18240;DHT22;9244;50.828;4.718;2022-07-06T15:53:04;22.80;99.90